Time;durP1;ratioP1;P1;durP2;ratioP2;P2;SDS_P1;SDS_P2;PMS_P1;PMS_P2;Temp;Humidity;BMP_temperature;BMP_pressure;BME280_temperature;BME280_humidity;BME280_pressure;Samples;Min_cycle;Max_cycle;Signal;HPM_P1;HPM_P2
2021/07/25 00:00:17;;;;;;;9.15;6.90;;;21.20;83.20;;;;;;5054080;28;20579;-91
2021/07/25 00:02:42;;;;;;;9.45;6.85;;;21.20;83.30;;;;;;5054273;28;20063;-91
2021/07/25 00:05:09;;;;;;;9.02;6.93;;;21.20;83.10;;;;;;5055216;28;20041;-91
2021/07/25 00:07:35;;;;;;;9.20;6.68;;;21.10;82.90;;;;;;5053914;28;20045;-88
2021/07/25 00:10:04;;;;;;;8.48;6.32;;;21.20;83.10;;;;;;5053371;28;20044;-91
2021/07/25 00:12:30;;;;;;;8.95;6.68;;;21.10;82.80;;;;;;5053556;28;20061;-90
2021/07/25 00:15:00;;;;;;;9.35;6.63;;;21.10;81.80;;;;;;5058979;28;20055;-90
2021/07/25 00:17:26;;;;;;;9.38;7.50;;;21.20;82.70;;;;;;5073847;28;20048;-90
2021/07/25 00:19:52;;;;;;;9.18;7.55;;;21.10;83.10;;;;;;5073241;28;20048;-90
2021/07/25 00:22:17;;;;;;;9.95;7.00;;;21.10;82.60;;;;;;5072564;28;20063;-89
2021/07/25 00:24:50;;;;;;;8.82;6.72;;;21.10;82.40;;;;;;5067218;28;20555;-91
2021/07/25 00:27:16;;;;;;;8.98;7.00;;;21.10;82.60;;;;;;5085080;28;20101;-90
2021/07/25 00:29:41;;;;;;;10.05;7.13;;;21.10;82.90;;;;;;5092926;28;20499;-90
2021/07/25 00:32:10;;;;;;;8.70;7.68;;;21.10;82.90;;;;;;5092180;28;20488;-88
2021/07/25 00:34:36;;;;;;;8.85;7.60;;;21.10;83.00;;;;;;5053031;28;20041;-90
2021/07/25 00:37:02;;;;;;;9.73;6.85;;;21.00;82.70;;;;;;5052394;28;20452;-89
2021/07/25 00:39:28;;;;;;;9.15;7.15;;;21.00;82.50;;;;;;5053378;28;20087;-89
2021/07/25 00:41:54;;;;;;;8.60;6.78;;;21.00;82.40;;;;;;5052629;28;20052;-89
2021/07/25 00:44:20;;;;;;;7.95;6.25;;;21.00;82.40;;;;;;5052906;28;20041;-90
2021/07/25 00:46:51;;;;;;;8.98;6.88;;;21.00;81.70;;;;;;5057510;28;20049;-91
2021/07/25 00:49:17;;;;;;;8.70;6.97;;;21.00;82.10;;;;;;5056695;28;20045;-89
2021/07/25 00:51:43;;;;;;;8.43;7.10;;;20.90;82.30;;;;;;5057494;28;20507;-91
2021/07/25 00:54:10;;;;;;;10.48;6.70;;;20.90;82.50;;;;;;5057199;28;20048;-89
2021/07/25 00:56:37;;;;;;;10.38;6.95;;;20.90;82.70;;;;;;5057146;28;20099;-89
2021/07/25 00:59:04;;;;;;;8.50;6.43;;;20.90;82.70;;;;;;5057639;28;20053;-90
2021/07/25 01:01:30;;;;;;;9.05;6.93;;;20.90;81.90;;;;;;5057797;28;20103;-89
2021/07/25 01:04:29;;;;;;;9.02;7.13;;;20.80;81.90;;;;;;5057697;28;20443;-88
2021/07/25 01:07:14;;;;;;;9.20;6.80;;;20.80;81.20;;;;;;5057266;28;20053;-88
2021/07/25 01:10:17;;;;;;;8.48;6.80;;;20.80;80.80;;;;;;5057306;28;20126;-88
2021/07/25 01:12:45;;;;;;;9.25;7.68;;;20.70;80.60;;;;;;5041435;28;20055;-88
2021/07/25 01:15:17;;;;;;;11.20;7.80;;;20.70;82.30;;;;;;5057302;28;20060;-90
2021/07/25 01:17:43;;;;;;;8.87;7.20;;;20.70;83.10;;;;;;5056726;28;20441;-87
2021/07/25 01:20:11;;;;;;;10.20;7.40;;;20.70;83.00;;;;;;5056762;28;20152;-89
2021/07/25 01:22:50;;;;;;;9.98;8.10;;;20.70;83.10;;;;;;5057024;28;20056;-89
2021/07/25 01:25:18;;;;;;;12.10;9.98;;;20.70;84.10;;;;;;5057333;28;20055;-90
2021/07/25 01:27:58;;;;;;;13.05;8.75;;;20.60;85.30;;;;;;5057153;28;20044;-90
2021/07/25 01:30:31;;;;;;;11.05;8.57;;;20.60;85.70;;;;;;5057571;28;20098;-91
2021/07/25 01:33:01;;;;;;;10.30;8.45;;;20.60;86.00;;;;;;5056446;28;20045;-90
2021/07/25 01:35:28;;;;;;;11.27;9.15;;;20.60;85.70;;;;;;5071965;28;20128;-92
2021/07/25 01:37:54;;;;;;;10.88;8.65;;;20.60;86.70;;;;;;5076315;28;20508;-90
2021/07/25 01:40:24;;;;;;;13.07;9.05;;;20.50;87.00;;;;;;5075647;28;20139;-86
2021/07/25 01:42:54;;;;;;;10.80;8.23;;;20.50;87.60;;;;;;5076449;28;20135;-90
2021/07/25 01:45:19;;;;;;;10.32;8.20;;;20.40;88.10;;;;;;5075248;28;20041;-86
2021/07/25 01:47:45;;;;;;;10.43;7.68;;;20.40;88.40;;;;;;5076308;28;20460;-89
2021/07/25 01:50:12;;;;;;;9.27;7.60;;;20.30;88.50;;;;;;5076095;28;20127;-90
2021/07/25 01:52:37;;;;;;;11.00;7.80;;;20.20;89.20;;;;;;5076593;28;20056;-90
2021/07/25 01:55:04;;;;;;;10.13;7.82;;;20.20;89.20;;;;;;5077417;28;20044;-94
2021/07/25 01:57:30;;;;;;;10.38;7.10;;;20.10;89.00;;;;;;5076153;28;20488;-94
2021/07/25 01:59:56;;;;;;;9.05;6.78;;;20.00;88.50;;;;;;5076956;28;20131;-94
2021/07/25 02:02:21;;;;;;;9.88;6.82;;;20.00;87.60;;;;;;5076815;28;20135;-91
2021/07/25 02:04:48;;;;;;;9.65;7.40;;;20.00;87.40;;;;;;5075604;28;20514;-91
2021/07/25 02:07:14;;;;;;;9.88;7.10;;;20.00;88.30;;;;;;5076341;28;20049;-88
2021/07/25 02:09:39;;;;;;;10.75;6.97;;;19.90;88.40;;;;;;5076691;28;20048;-89
2021/07/25 02:12:07;;;;;;;9.45;7.13;;;19.90;88.70;;;;;;5075294;28;20138;-89
2021/07/25 02:14:35;;;;;;;9.27;6.95;;;19.80;89.00;;;;;;5074415;28;20044;-90
2021/07/25 02:17:01;;;;;;;10.10;6.60;;;19.80;89.00;;;;;;5075637;28;20052;-89
2021/07/25 02:19:27;;;;;;;9.98;6.72;;;19.70;88.90;;;;;;5075362;28;20097;-89
2021/07/25 02:21:54;;;;;;;8.45;6.38;;;19.70;89.20;;;;;;5074891;28;20067;-90
2021/07/25 02:24:20;;;;;;;10.18;7.28;;;19.60;89.00;;;;;;5075854;28;20059;-87
2021/07/25 02:26:46;;;;;;;9.07;6.85;;;19.60;89.10;;;;;;5076106;28;20045;-88
2021/07/25 02:29:12;;;;;;;10.25;6.95;;;19.60;89.50;;;;;;5074614;28;20087;-86
2021/07/25 02:31:38;;;;;;;9.55;6.85;;;19.60;89.60;;;;;;5075124;28;20068;-88
2021/07/25 02:34:03;;;;;;;10.65;6.78;;;19.50;89.60;;;;;;5072182;28;20056;-86
2021/07/25 02:36:29;;;;;;;9.02;6.88;;;19.50;89.80;;;;;;5054554;28;20438;-88
2021/07/25 02:38:54;;;;;;;9.77;6.57;;;19.40;89.70;;;;;;5055776;28;20489;-85
2021/07/25 02:41:20;;;;;;;8.93;7.13;;;19.40;89.50;;;;;;5054901;28;20052;-86
2021/07/25 02:43:46;;;;;;;10.00;6.90;;;19.40;89.40;;;;;;5054239;28;20044;-85
2021/07/25 02:46:11;;;;;;;9.48;6.72;;;19.40;90.30;;;;;;5054460;28;20127;-88
2021/07/25 02:48:37;;;;;;;9.07;6.22;;;19.40;90.00;;;;;;5054086;28;20057;-86
2021/07/25 02:51:03;;;;;;;8.68;6.32;;;19.30;89.80;;;;;;5055109;28;20119;-87
2021/07/25 02:53:28;;;;;;;9.35;6.82;;;19.30;90.10;;;;;;5054920;28;20516;-88
2021/07/25 02:55:54;;;;;;;9.23;6.72;;;19.30;89.80;;;;;;5054276;28;20497;-87
2021/07/25 02:58:21;;;;;;;8.43;6.70;;;19.30;89.70;;;;;;5054512;28;20511;-86
2021/07/25 03:00:47;;;;;;;9.40;6.53;;;19.20;90.20;;;;;;5054160;28;20049;-86
2021/07/25 03:03:13;;;;;;;11.68;6.85;;;19.20;89.30;;;;;;5061975;28;20139;-85
2021/07/25 03:05:39;;;;;;;9.85;7.15;;;19.20;89.90;;;;;;5074189;28;20049;-87
2021/07/25 03:08:05;;;;;;;10.18;6.47;;;19.20;90.00;;;;;;5065894;28;20103;-90
2021/07/25 03:10:31;;;;;;;10.70;7.05;;;19.20;89.90;;;;;;5060456;28;20036;-91
2021/07/25 03:12:56;;;;;;;8.23;6.35;;;19.20;90.00;;;;;;5075041;28;20070;-87
2021/07/25 03:15:22;;;;;;;9.60;6.90;;;19.20;89.60;;;;;;5074639;28;20048;-91
2021/07/25 03:17:48;;;;;;;8.55;6.40;;;19.20;89.30;;;;;;5074632;28;20416;-90
2021/07/25 03:20:14;;;;;;;9.20;6.28;;;19.20;89.20;;;;;;5074565;28;20044;-88
2021/07/25 03:22:40;;;;;;;8.20;6.25;;;19.20;88.80;;;;;;5067310;28;20409;-89
2021/07/25 03:25:06;;;;;;;9.38;7.00;;;19.20;87.90;;;;;;5053844;28;20048;-89
2021/07/25 03:27:32;;;;;;;9.50;6.90;;;19.20;88.60;;;;;;5054758;28;20083;-88
2021/07/25 03:29:57;;;;;;;8.60;6.72;;;19.30;89.20;;;;;;5054264;28;20106;-89
2021/07/25 03:32:23;;;;;;;9.27;6.25;;;19.30;89.70;;;;;;5053627;28;20052;-88
2021/07/25 03:34:49;;;;;;;8.68;6.30;;;19.30;89.50;;;;;;5054807;28;20049;-89
2021/07/25 03:37:17;;;;;;;7.65;5.65;;;19.30;89.90;;;;;;5061427;28;20106;-86
2021/07/25 03:39:44;;;;;;;7.22;5.63;;;19.20;90.00;;;;;;5072973;28;20050;-89
2021/07/25 03:42:11;;;;;;;7.18;5.82;;;19.20;89.90;;;;;;5073313;28;20079;-88
2021/07/25 03:44:38;;;;;;;6.93;5.40;;;19.20;90.30;;;;;;5073777;28;20052;-89
2021/07/25 03:47:07;;;;;;;8.07;5.80;;;19.20;90.10;;;;;;5071102;28;20059;-90
2021/07/25 03:49:32;;;;;;;7.68;5.00;;;19.20;90.10;;;;;;5074515;28;20036;-94
2021/07/25 03:51:59;;;;;;;7.05;5.20;;;19.20;90.20;;;;;;5074308;28;20049;-91
2021/07/25 03:54:24;;;;;;;7.78;5.90;;;19.20;90.20;;;;;;5074875;28;20044;-93
2021/07/25 03:56:50;;;;;;;6.93;5.07;;;19.10;89.50;;;;;;5076846;28;20082;-94
2021/07/25 03:59:17;;;;;;;8.23;5.57;;;19.10;89.20;;;;;;5077264;28;20044;-94
2021/07/25 04:01:42;;;;;;;7.30;5.53;;;19.10;89.70;;;;;;5078618;28;20113;-93
2021/07/25 04:04:08;;;;;;;6.68;5.15;;;19.10;90.20;;;;;;5061500;28;20044;-93
2021/07/25 04:06:33;;;;;;;8.02;5.60;;;19.10;89.90;;;;;;5057081;28;20394;-91
2021/07/25 04:09:00;;;;;;;8.02;6.13;;;19.20;90.50;;;;;;5055361;28;20568;-90
2021/07/25 04:11:26;;;;;;;8.07;5.90;;;19.20;91.00;;;;;;5055048;28;20080;-93
2021/07/25 04:13:51;;;;;;;7.30;5.47;;;19.20;90.70;;;;;;5055448;28;20049;-91
2021/07/25 04:16:17;;;;;;;7.82;6.03;;;19.10;90.50;;;;;;5054729;28;20347;-93
2021/07/25 04:18:43;;;;;;;7.65;5.85;;;19.20;90.90;;;;;;5054805;28;20136;-91
2021/07/25 04:21:09;;;;;;;8.82;5.93;;;19.10;91.10;;;;;;5052753;28;20057;-91
2021/07/25 04:23:41;;;;;;;7.97;6.50;;;19.10;90.90;;;;;;5054810;28;20049;-91
2021/07/25 04:26:08;;;;;;;7.30;5.15;;;19.10;91.30;;;;;;5054661;28;20072;-93
2021/07/25 04:28:34;;;;;;;8.65;6.47;;;19.10;90.90;;;;;;5054888;28;20053;-93
2021/07/25 04:31:03;;;;;;;8.20;6.20;;;19.10;91.20;;;;;;5054877;28;20053;-93
2021/07/25 04:33:30;;;;;;;9.10;7.20;;;19.10;91.20;;;;;;5054643;28;20048;-93
2021/07/25 04:35:56;;;;;;;7.97;6.10;;;19.10;91.70;;;;;;5054952;28;20048;-93
2021/07/25 04:38:22;;;;;;;8.07;6.07;;;19.10;91.70;;;;;;5054977;28;20077;-94
2021/07/25 04:41:12;;;;;;;10.88;8.35;;;19.10;91.00;;;;;;5054782;28;20135;-94
2021/07/25 04:43:39;;;;;;;10.18;8.43;;;19.10;91.40;;;;;;5055161;28;20049;-94
2021/07/25 04:46:28;;;;;;;11.32;8.88;;;19.10;91.30;;;;;;5055001;28;20049;-93
2021/07/25 04:49:11;;;;;;;14.25;10.88;;;19.10;91.20;;;;;;5055132;28;20055;-93
2021/07/25 04:51:38;;;;;;;10.05;7.32;;;19.10;91.50;;;;;;5055262;28;20048;-94
2021/07/25 04:54:16;;;;;;;10.82;8.52;;;19.10;91.20;;;;;;5055117;28;20049;-95
2021/07/25 04:56:56;;;;;;;12.82;10.80;;;19.10;91.20;;;;;;5055154;28;20105;-94
2021/07/25 04:59:49;;;;;;;16.52;12.13;;;19.10;91.50;;;;;;5055292;28;20416;-94
2021/07/25 05:02:16;;;;;;;13.65;11.40;;;19.10;91.60;;;;;;5055592;28;20060;-93
2021/07/25 05:04:42;;;;;;;10.55;8.80;;;19.10;91.70;;;;;;5055241;28;20057;-93
2021/07/25 05:07:13;;;;;;;14.52;11.95;;;19.10;91.40;;;;;;5054861;28;20151;-93
2021/07/25 05:09:39;;;;;;;15.43;12.35;;;19.10;91.60;;;;;;5055040;28;20099;-92
2021/07/25 05:12:29;;;;;;;11.55;9.88;;;19.10;91.70;;;;;;5054481;28;20080;-91
2021/07/25 05:15:06;;;;;;;12.80;10.45;;;19.10;91.30;;;;;;5055029;28;20060;-93
2021/07/25 05:17:43;;;;;;;10.98;8.98;;;19.10;91.50;;;;;;5054645;28;20045;-93
2021/07/25 05:20:16;;;;;;;15.77;11.45;;;19.10;91.10;;;;;;5054992;28;20053;-93
2021/07/25 05:23:06;;;;;;;14.25;11.02;;;19.20;91.50;;;;;;5054594;28;20106;-93
2021/07/25 05:25:32;;;;;;;14.90;11.60;;;19.10;91.60;;;;;;5054230;28;20550;-94
2021/07/25 05:28:04;;;;;;;15.80;11.65;;;19.10;91.60;;;;;;5054725;28;20049;-93
2021/07/25 05:30:31;;;;;;;15.88;12.52;;;19.10;91.80;;;;;;5059811;28;20041;-92
2021/07/25 05:32:56;;;;;;;14.43;12.48;;;19.10;92.20;;;;;;5078524;28;20067;-92
2021/07/25 05:35:22;;;;;;;11.88;9.82;;;19.20;92.10;;;;;;5077867;28;20480;-92
2021/07/25 05:37:48;;;;;;;13.20;11.32;;;19.20;91.70;;;;;;5078077;28;20045;-92
2021/07/25 05:40:15;;;;;;;16.52;13.27;;;19.10;91.80;;;;;;5078020;28;20068;-93
2021/07/25 05:42:42;;;;;;;17.25;13.27;;;19.20;92.00;;;;;;5077992;28;20169;-91
2021/07/25 05:45:09;;;;;;;13.57;11.45;;;19.20;92.20;;;;;;5077216;28;20083;-90
2021/07/25 05:47:36;;;;;;;15.82;13.05;;;19.20;92.00;;;;;;5077702;28;20488;-91
2021/07/25 05:50:03;;;;;;;13.50;11.07;;;19.20;92.30;;;;;;5077233;28;20067;-91
2021/07/25 05:52:41;;;;;;;14.70;12.50;;;19.20;92.00;;;;;;5077611;28;20052;-93
2021/07/25 05:55:09;;;;;;;11.75;9.18;;;19.20;92.10;;;;;;5077548;28;20036;-91
2021/07/25 05:57:35;;;;;;;13.18;11.05;;;19.20;91.60;;;;;;5077062;28;20055;-90
2021/07/25 06:00:01;;;;;;;12.95;11.20;;;19.20;91.60;;;;;;5073395;28;20046;-90
2021/07/25 06:02:28;;;;;;;13.00;10.15;;;19.20;91.60;;;;;;5056663;28;20136;-89
2021/07/25 06:04:53;;;;;;;10.82;8.40;;;19.20;91.50;;;;;;5057264;28;20092;-90
2021/07/25 06:07:19;;;;;;;16.88;13.68;;;19.20;91.00;;;;;;5056320;28;20469;-90
2021/07/25 06:09:45;;;;;;;13.13;10.15;;;19.30;91.90;;;;;;5057057;28;20049;-89
2021/07/25 06:12:13;;;;;;;11.23;9.45;;;19.30;91.80;;;;;;5056777;28;20052;-90
2021/07/25 06:14:39;;;;;;;15.27;11.25;;;19.40;91.50;;;;;;5056104;28;20053;-90
2021/07/25 06:17:05;;;;;;;13.45;10.40;;;19.40;91.70;;;;;;5056696;28;20459;-90
2021/07/25 06:19:30;;;;;;;18.27;12.48;;;19.40;91.60;;;;;;5056314;28;20074;-92
2021/07/25 06:21:58;;;;;;;16.00;11.55;;;19.40;92.00;;;;;;5056484;28;20110;-90
2021/07/25 06:24:24;;;;;;;13.52;11.75;;;19.50;91.90;;;;;;5057004;28;20053;-92
2021/07/25 06:26:49;;;;;;;18.25;14.52;;;19.50;91.90;;;;;;5062852;28;20520;-90
2021/07/25 06:29:15;;;;;;;18.60;13.40;;;19.50;92.40;;;;;;5075639;28;20047;-89
2021/07/25 06:31:41;;;;;;;18.45;14.65;;;19.60;92.60;;;;;;5071375;28;20072;-91
2021/07/25 06:34:06;;;;;;;15.02;11.88;;;19.50;92.60;;;;;;5075668;28;20094;-91
2021/07/25 06:36:33;;;;;;;17.42;13.20;;;19.60;92.40;;;;;;5072657;28;20080;-94
2021/07/25 06:38:59;;;;;;;18.75;14.57;;;19.60;92.70;;;;;;5058262;28;20127;-94
2021/07/25 06:41:24;;;;;;;15.18;13.25;;;19.60;92.90;;;;;;5057130;28;20080;-90
2021/07/25 06:43:50;;;;;;;22.50;16.23;;;19.60;92.80;;;;;;5060729;28;20095;-93
2021/07/25 06:46:16;;;;;;;19.77;16.00;;;19.70;93.10;;;;;;5057200;28;20041;-91
2021/07/25 06:48:41;;;;;;;14.95;12.77;;;19.70;93.20;;;;;;5061540;28;20575;-95
2021/07/25 06:51:07;;;;;;;20.05;15.23;;;19.80;92.80;;;;;;5063925;28;20040;-95
2021/07/25 06:53:33;;;;;;;18.60;15.60;;;19.80;93.10;;;;;;5061792;28;20049;-94
2021/07/25 06:56:05;;;;;;;15.35;13.30;;;19.90;93.30;;;;;;5059210;28;20095;-95
2021/07/25 06:58:32;;;;;;;18.20;15.77;;;19.90;93.20;;;;;;5059270;28;20127;-93
2021/07/25 07:00:58;;;;;;;16.73;13.63;;;20.00;93.20;;;;;;5059701;28;20045;-94
2021/07/25 07:03:24;;;;;;;18.75;15.35;;;20.00;92.90;;;;;;5065551;28;20049;-90
2021/07/25 07:05:49;;;;;;;18.17;16.05;;;20.10;93.10;;;;;;5057067;28;20049;-94
2021/07/25 07:08:15;;;;;;;19.27;15.27;;;20.10;93.30;;;;;;5057549;28;20075;-95
2021/07/25 07:10:43;;;;;;;20.20;15.00;;;20.20;93.20;;;;;;5056713;28;20099;-91
2021/07/25 07:13:18;;;;;;;17.20;15.25;;;20.20;93.20;;;;;;5057850;28;20079;-93
2021/07/25 07:15:45;;;;;;;19.52;15.60;;;20.30;93.10;;;;;;5056703;28;20542;-95
2021/07/25 07:18:11;;;;;;;19.05;15.65;;;20.30;93.10;;;;;;5038911;28;20076;-91
2021/07/25 07:20:37;;;;;;;19.52;16.42;;;20.40;93.00;;;;;;5057359;28;20064;-94
2021/07/25 07:23:06;;;;;;;17.27;14.27;;;20.40;93.00;;;;;;5057856;28;20082;-95
2021/07/25 07:25:35;;;;;;;18.17;15.93;;;20.40;92.80;;;;;;5058758;28;20051;-96
2021/07/25 07:28:02;;;;;;;18.13;14.70;;;20.40;93.20;;;;;;5058238;28;20049;-95
2021/07/25 07:30:28;;;;;;;18.60;16.70;;;20.50;92.90;;;;;;5057711;28;20386;-95
2021/07/25 07:32:54;;;;;;;21.95;16.33;;;20.50;93.00;;;;;;5070100;28;20062;-94
2021/07/25 07:35:26;;;;;;;18.17;15.68;;;20.60;93.00;;;;;;5070946;28;20044;-94
2021/07/25 07:37:52;;;;;;;17.03;13.73;;;20.70;92.70;;;;;;5056825;28;20049;-91
2021/07/25 07:40:19;;;;;;;19.30;14.95;;;20.70;92.40;;;;;;5055953;28;20045;-94
2021/07/25 07:42:46;;;;;;;16.90;14.57;;;20.70;92.30;;;;;;5055623;28;20563;-92
2021/07/25 07:45:12;;;;;;;22.30;14.90;;;20.70;92.10;;;;;;5055953;28;20041;-92
2021/07/25 07:47:37;;;;;;;19.15;14.00;;;20.70;91.90;;;;;;5056536;28;20053;-90
2021/07/25 07:50:04;;;;;;;19.20;16.17;;;20.80;91.60;;;;;;5073095;28;20522;-93
2021/07/25 07:52:29;;;;;;;21.08;17.10;;;20.80;91.70;;;;;;5074079;28;20408;-90
2021/07/25 07:54:55;;;;;;;18.80;14.50;;;20.80;92.00;;;;;;5073496;28;20040;-92
2021/07/25 07:57:23;;;;;;;20.73;16.77;;;20.90;91.70;;;;;;5074767;28;20059;-91
2021/07/25 07:59:52;;;;;;;23.58;19.92;;;20.90;91.80;;;;;;5073506;28;20040;-91
2021/07/25 08:02:21;;;;;;;22.42;17.90;;;20.90;91.90;;;;;;5068625;28;20052;-89
2021/07/25 08:04:47;;;;;;;23.38;20.27;;;20.90;91.80;;;;;;5052541;28;20404;-89
2021/07/25 08:07:12;;;;;;;24.05;21.05;;;21.00;92.00;;;;;;5052795;28;20045;-92
2021/07/25 08:09:38;;;;;;;23.80;20.42;;;21.00;91.90;;;;;;5055019;28;20086;-91
2021/07/25 08:12:06;;;;;;;28.10;22.70;;;21.10;91.70;;;;;;5054708;28;20045;-92
2021/07/25 08:14:32;;;;;;;27.63;24.67;;;21.10;91.70;;;;;;5058481;28;20513;-90
2021/07/25 08:16:58;;;;;;;31.88;24.42;;;21.10;91.90;;;;;;5055869;28;20056;-88
2021/07/25 08:19:24;;;;;;;28.92;24.20;;;21.20;92.10;;;;;;5054982;28;20409;-94
2021/07/25 08:21:50;;;;;;;27.95;23.45;;;21.20;92.00;;;;;;5055532;28;20078;-93
2021/07/25 08:24:16;;;;;;;22.83;20.23;;;21.30;92.00;;;;;;5057106;28;20049;-94
2021/07/25 08:26:42;;;;;;;29.65;22.85;;;21.40;91.80;;;;;;5055234;28;20404;-91
2021/07/25 08:29:07;;;;;;;25.92;20.83;;;21.40;91.50;;;;;;5055514;28;20486;-95
2021/07/25 08:31:34;;;;;;;26.85;21.83;;;21.50;91.30;;;;;;5056305;28;20045;-93
2021/07/25 08:33:59;;;;;;;25.77;22.80;;;21.60;91.30;;;;;;5054211;28;20102;-92
2021/07/25 08:36:25;;;;;;;28.05;22.73;;;21.70;91.30;;;;;;5055602;28;20048;-94
2021/07/25 08:38:51;;;;;;;30.67;25.70;;;21.70;91.30;;;;;;5055924;28;20102;-95
2021/07/25 08:41:40;;;;;;;29.98;26.00;;;21.80;91.20;;;;;;5059823;28;20045;-95
2021/07/25 08:44:24;;;;;;;33.05;25.83;;;21.80;91.10;;;;;;5076590;28;20080;-94
2021/07/25 08:46:54;;;;;;;29.40;24.98;;;21.90;90.80;;;;;;5057357;28;20076;-95
2021/07/25 08:49:47;;;;;;;31.48;24.85;;;21.90;90.60;;;;;;5056061;28;20546;-96
2021/07/25 08:52:16;;;;;;;31.33;25.67;;;21.90;90.40;;;;;;5055210;28;20191;-92
2021/07/25 08:54:43;;;;;;;30.35;23.33;;;21.90;90.70;;;;;;5058867;28;20056;-92
2021/07/25 08:57:13;;;;;;;27.85;22.40;;;22.00;90.70;;;;;;5074893;28;20480;-94
2021/07/25 08:59:42;;;;;;;27.85;23.30;;;22.00;90.50;;;;;;5075104;28;20040;-93
2021/07/25 09:02:15;;;;;;;25.00;22.20;;;22.10;90.40;;;;;;5076118;28;20508;-95
2021/07/25 09:04:42;;;;;;;24.52;21.85;;;22.20;90.60;;;;;;5084033;28;20113;-95
2021/07/25 09:07:08;;;;;;;27.58;23.77;;;22.30;90.40;;;;;;5072426;28;20484;-95
2021/07/25 09:09:35;;;;;;;27.40;23.23;;;22.30;90.00;;;;;;5074384;28;20045;-94
2021/07/25 09:12:01;;;;;;;31.52;24.05;;;22.40;89.80;;;;;;5078008;28;20051;-94
2021/07/25 09:14:35;;;;;;;32.65;26.95;;;22.50;90.00;;;;;;5082553;28;20055;-95
2021/07/25 09:17:01;;;;;;;34.33;28.88;;;22.60;88.80;;;;;;5084727;28;20049;-96
2021/07/25 09:19:27;;;;;;;34.42;28.30;;;22.60;88.30;;;;;;5084535;28;20135;-95
2021/07/25 09:21:52;;;;;;;34.53;29.13;;;22.60;88.40;;;;;;5081705;28;20075;-96
2021/07/25 09:27:04;;;;;;;38.97;30.50;;;22.80;87.70;;;;;;5102864;22;20800;-91
2021/07/25 09:30:08;;;;;;;33.30;27.48;;;22.80;88.30;;;;;;5079003;28;20048;-93
2021/07/25 09:36:27;;;;;;;35.20;29.45;;;22.90;86.90;;;;;;4959518;29;20061;-91
2021/07/25 09:39:08;;;;;;;32.00;28.38;;;23.00;87.30;;;;;;5008448;28;20439;-93
2021/07/25 09:42:01;;;;;;;34.80;31.10;;;23.10;87.00;;;;;;5018853;28;20076;-95
2021/07/25 09:44:56;;;;;;;35.60;30.30;;;23.10;86.50;;;;;;5017798;28;20061;-89
2021/07/25 09:47:42;;;;;;;35.20;28.42;;;23.10;86.80;;;;;;5079266;28;20044;-93
2021/07/25 09:50:14;;;;;;;31.08;27.02;;;23.20;86.60;;;;;;5080663;28;20094;-94
2021/07/25 09:52:42;;;;;;;30.17;24.60;;;23.20;86.60;;;;;;5082970;28;20055;-92
2021/07/25 09:55:47;;;;;;;29.08;25.27;;;23.30;85.90;;;;;;5081225;28;20048;-94
2021/07/25 09:58:33;;;;;;;29.45;24.92;;;23.30;84.60;;;;;;5078670;28;20049;-92
2021/07/25 10:01:06;;;;;;;30.20;27.00;;;23.30;84.90;;;;;;5078397;28;20516;-91
2021/07/25 10:03:41;;;;;;;28.90;25.10;;;23.40;86.10;;;;;;5076771;28;20118;-93
2021/07/25 10:06:26;;;;;;;28.38;25.35;;;23.40;84.90;;;;;;5076304;28;20044;-92
2021/07/25 10:09:17;;;;;;;29.48;24.75;;;23.40;84.20;;;;;;5077838;28;20052;-82
2021/07/25 10:11:47;;;;;;;25.92;21.10;;;23.50;84.70;;;;;;5077356;28;20053;-93
2021/07/25 10:14:33;;;;;;;23.50;20.95;;;23.50;83.30;;;;;;5077355;28;20049;-90
2021/07/25 10:17:01;;;;;;;23.80;20.30;;;23.60;83.10;;;;;;5077037;28;20044;-93
2021/07/25 10:19:36;;;;;;;23.90;20.70;;;23.60;81.80;;;;;;5076506;28;20487;-91
2021/07/25 10:22:13;;;;;;;23.60;20.45;;;23.60;80.60;;;;;;5076707;28;20404;-93
2021/07/25 10:24:40;;;;;;;24.38;21.25;;;23.70;81.60;;;;;;5077115;28;20064;-91
2021/07/25 10:27:06;;;;;;;22.50;20.13;;;23.70;81.60;;;;;;5075149;28;20119;-90
2021/07/25 10:29:33;;;;;;;23.75;21.15;;;23.80;83.00;;;;;;5076662;28;20055;-89
2021/07/25 10:32:00;;;;;;;28.83;22.33;;;23.90;82.10;;;;;;5075928;28;20450;-91
2021/07/25 10:34:29;;;;;;;24.15;21.63;;;23.90;81.40;;;;;;5075860;28;20078;-91
2021/07/25 10:36:55;;;;;;;23.23;20.75;;;24.00;81.80;;;;;;5076071;28;20040;-94
2021/07/25 10:39:24;;;;;;;27.98;22.27;;;24.10;81.80;;;;;;5076379;28;20090;-92
2021/07/25 10:41:52;;;;;;;25.67;21.63;;;24.10;80.40;;;;;;5077098;28;20584;-96
2021/07/25 10:44:18;;;;;;;23.17;19.40;;;24.20;80.50;;;;;;5077137;28;20143;-93
2021/07/25 10:46:45;;;;;;;22.95;18.50;;;24.20;80.00;;;;;;5077140;28;20067;-92
2021/07/25 10:49:15;;;;;;;22.65;19.40;;;24.20;79.70;;;;;;5064861;28;20052;-94
2021/07/25 10:52:00;;;;;;;20.05;17.98;;;24.20;80.50;;;;;;5056955;28;20048;-93
2021/07/25 10:54:26;;;;;;;21.08;18.73;;;24.30;78.90;;;;;;5060729;28;20046;-94
2021/07/25 10:57:11;;;;;;;21.02;17.73;;;24.30;80.20;;;;;;5076616;28;20139;-89
2021/07/25 10:59:52;;;;;;;22.25;18.45;;;24.30;80.10;;;;;;5075102;28;20049;-88
2021/07/25 11:02:21;;;;;;;21.90;18.77;;;24.30;79.70;;;;;;5073877;28;20063;-91
2021/07/25 11:04:58;;;;;;;22.15;18.67;;;24.30;79.70;;;;;;5075514;28;20131;-91
2021/07/25 11:07:24;;;;;;;22.63;17.45;;;24.30;80.40;;;;;;5073607;28;20049;-90
2021/07/25 11:10:05;;;;;;;20.13;17.20;;;24.30;80.50;;;;;;5073043;28;20044;-89
2021/07/25 11:12:52;;;;;;;21.65;18.17;;;24.30;80.00;;;;;;5072043;28;20044;-89
2021/07/25 11:15:33;;;;;;;18.77;16.77;;;24.30;79.70;;;;;;5073376;28;20052;-90
2021/07/25 11:17:59;;;;;;;21.73;18.25;;;24.30;80.40;;;;;;5070547;28;20435;-89
2021/07/25 11:20:58;;;;;;;18.88;16.98;;;24.30;80.70;;;;;;5073444;28;20056;-89
2021/07/25 11:23:33;;;;;;;20.70;17.38;;;24.30;80.20;;;;;;5072032;28;20114;-89
2021/07/25 11:26:38;;;;;;;21.40;17.77;;;24.20;80.90;;;;;;5074593;28;20059;-90
2021/07/25 11:29:09;;;;;;;21.02;18.73;;;24.30;80.80;;;;;;5073929;28;20121;-90
2021/07/25 11:31:36;;;;;;;19.83;17.67;;;24.30;80.40;;;;;;5074187;28;20116;-91
2021/07/25 11:34:03;;;;;;;19.67;17.52;;;24.30;80.40;;;;;;5074774;28;20078;-90
2021/07/25 11:36:28;;;;;;;20.33;18.20;;;24.30;80.80;;;;;;5075413;28;20041;-90
2021/07/25 11:38:59;;;;;;;18.63;16.63;;;24.30;81.60;;;;;;5076827;28;20116;-88
2021/07/25 11:41:33;;;;;;;19.15;17.15;;;24.40;82.10;;;;;;5079086;28;20476;-90
2021/07/25 11:44:09;;;;;;;20.90;18.13;;;24.40;82.20;;;;;;5080811;28;20503;-88
2021/07/25 11:46:47;;;;;;;18.73;16.83;;;24.40;81.80;;;;;;5078391;28;20503;-93
2021/07/25 11:49:24;;;;;;;22.15;18.85;;;24.40;81.80;;;;;;5075500;28;20048;-94
2021/07/25 11:52:04;;;;;;;19.90;17.80;;;24.40;81.30;;;;;;5076041;28;20068;-92
2021/07/25 11:54:37;;;;;;;19.10;16.75;;;24.40;80.80;;;;;;5076297;28;20053;-95
2021/07/25 11:57:05;;;;;;;20.30;17.13;;;24.40;81.80;;;;;;5075284;28;20568;-94
2021/07/25 11:59:34;;;;;;;18.33;16.42;;;24.40;82.10;;;;;;5076064;28;20052;-92
2021/07/25 12:02:00;;;;;;;19.35;17.25;;;24.50;81.20;;;;;;5075508;28;20044;-94
2021/07/25 12:04:33;;;;;;;18.83;16.40;;;24.50;81.50;;;;;;5075261;28;20389;-95
2021/07/25 12:07:16;;;;;;;20.02;17.38;;;24.50;82.10;;;;;;5076074;28;20067;-95
2021/07/25 12:09:53;;;;;;;19.52;16.38;;;24.50;80.00;;;;;;5075641;28;20056;-92
2021/07/25 12:12:37;;;;;;;19.67;16.67;;;24.50;80.70;;;;;;5074384;28;20507;-92
2021/07/25 12:15:04;;;;;;;19.95;16.67;;;24.40;80.40;;;;;;5075156;28;20052;-92
2021/07/25 12:17:39;;;;;;;20.08;16.63;;;24.50;80.60;;;;;;5073835;28;20045;-91
2021/07/25 12:20:12;;;;;;;18.75;16.75;;;24.50;80.70;;;;;;5073916;28;20067;-89
2021/07/25 12:22:48;;;;;;;17.33;15.05;;;24.50;80.50;;;;;;5074993;28;20127;-91
2021/07/25 12:25:14;;;;;;;18.25;16.23;;;24.60;81.50;;;;;;5076022;28;20114;-93
2021/07/25 12:27:39;;;;;;;18.90;16.08;;;24.60;81.80;;;;;;5078477;28;20078;-95
2021/07/25 12:30:16;;;;;;;17.10;15.30;;;24.70;81.50;;;;;;5077637;28;20446;-95
2021/07/25 12:32:44;;;;;;;16.70;14.90;;;24.70;81.30;;;;;;5076930;28;20127;-90
2021/07/25 12:35:10;;;;;;;18.52;15.95;;;24.70;81.50;;;;;;5075309;28;20452;-92
2021/07/25 12:37:47;;;;;;;16.50;14.75;;;24.70;79.90;;;;;;5075141;28;20075;-94
2021/07/25 12:40:17;;;;;;;17.00;15.30;;;24.70;79.80;;;;;;5075156;28;20056;-93
2021/07/25 12:43:05;;;;;;;18.00;15.70;;;24.70;80.60;;;;;;5075489;28;20049;-95
2021/07/25 12:45:33;;;;;;;16.63;14.93;;;24.70;79.10;;;;;;5075679;28;20496;-94
2021/07/25 12:48:23;;;;;;;16.90;15.13;;;24.70;79.70;;;;;;5075515;28;20089;-93
2021/07/25 12:53:59;;;;;;;17.40;13.88;;;24.70;78.50;;;;;;5075774;28;20063;-94
2021/07/25 12:56:33;;;;;;;16.55;14.50;;;24.70;78.80;;;;;;5074773;28;20068;-93